Ga Leam — VRHD5 — position and weather

sailwx.info

Track history (hours):
 
Tides and Currents Weather Stations Pressure Air Temp Water Temp Dewpoint Dewpoint Depression Visibility Wind Speed Wind Dir Waves Ship Positions

Ga Leam

Last reported at 2018-Jan-24 11:18 UTC. Time now 2018-Feb-21 07:12 UTC.
Position N 01°22' E 103°17'.
Warning: this ship's position is 27 days out of date.

Length 190 m; draft 13.1 m.

Type: Cargo ship. MMSI: 477826600.

Date/timePositionNaut miles runAvg speedWind from/ knotsBaromVisibWave heightAir tempDewpointWater temp
2018-Jan-24 11:18N 01°22' E 103°17'411.7
2018-Jan-24 11:00N 01°19' E 103°19'2410.6
2018-Jan-24 08:45N 01°10' E 103°41'310.4
2018-Jan-24 08:30N 01°09' E 103°43'510.8
2018-Jan-24 08:00N 01°11' E 103°48'510.5
2018-Jan-24 07:30N 01°13' E 103°53'510.3
2018-Jan-24 07:00N 01°15' E 103°58'4 8.1
2018-Jan-24 06:29N 01°17' E 104°02'0 0.6
2018-Jan-24 05:59N 01°17' E 104°02'0 0.0
2018-Jan-24 05:23N 01°17' E 104°02'0 0.0
2018-Jan-24 04:56N 01°17' E 104°02'0 0.0
2018-Jan-24 04:29N 01°17' E 104°02'0 0.0
2018-Jan-24 03:59N 01°17' E 104°02'0 0.0
2018-Jan-24 03:29N 01°17' E 104°02'0 0.0
2018-Jan-24 02:59N 01°17' E 104°02'0 0.0
2018-Jan-24 02:29N 01°17' E 104°02'0 0.0
2018-Jan-24 01:59N 01°17' E 104°02'0 0.0
2018-Jan-24 01:29N 01°17' E 104°02'0 0.0
2018-Jan-24 00:59N 01°17' E 104°02'0 0.0
2018-Jan-24 00:26N 01°17' E 104°02'0 0.0
2018-Jan-23 23:50N 01°17' E 104°02'0 0.0
2018-Jan-23 23:17N 01°17' E 104°02'0 0.0
2018-Jan-23 22:59N 01°17' E 104°02'0 0.0
2018-Jan-23 22:29N 01°17' E 104°02'0 0.0
2018-Jan-23 21:23N 01°17' E 104°02'0 0.0
2018-Jan-23 20:59N 01°17' E 104°02'0 0.0
2018-Jan-23 20:29N 01°17' E 104°02'0 0.0
2018-Jan-23 19:53N 01°17' E 104°02'0 0.1
2018-Jan-23 19:23N 01°17' E 104°02'0 0.1
2018-Jan-23 18:56N 01°17' E 104°02'1 1.7
2018-Jan-23 18:30N 01°17' E 104°01'3 5.0
2018-Jan-23 18:00N 01°16' E 103°58'0 0.7
2018-Jan-23 17:30N 01°16' E 103°58'2 4.2
2018-Jan-23 17:00N 01°16' E 104°00'3 5.9
2018-Jan-23 16:28N 01°17' E 104°03'  
2018-Jan-18 03:45N 22°24' E 119°40'3 9.8
2018-Jan-18 03:29N 22°27' E 119°41'5 9.6
2018-Jan-18 02:56N 22°32' E 119°43'4 9.8
2018-Jan-18 02:30N 22°35' E 119°45'510.7
2018-Jan-18 02:00N 22°40' E 119°48'510.7
2018-Jan-18 01:30N 22°45' E 119°50'511.0
2018-Jan-18 01:00N 22°50' E 119°52'1010.4
2018-Jan-18 00:00N 22°60' E 119°56'0 9.6
2018-Jan-17 23:57N 23°00' E 119°56'  
Track history (hours):
 
Tides and Currents Weather Stations Pressure Air Temp Water Temp Dewpoint Dewpoint Depression Visibility Wind Speed Wind Dir Waves Ship Positions

Ga Leam

Last reported at 2018-Jan-24 11:18 UTC. Time now 2018-Feb-21 07:12 UTC.
Position N 01°22' E 103°17'.
Warning: this ship's position is 27 days out of date.

Length 190 m; draft 13.1 m.

Type: Cargo ship. MMSI: 477826600.

Date/timePositionNaut miles runAvg speedWind from/ knotsBaromVisibWave heightAir tempDewpointWater temp
2018-Jan-24 11:18N 01°22' E 103°17'411.7
2018-Jan-24 11:00N 01°19' E 103°19'2410.6
2018-Jan-24 08:45N 01°10' E 103°41'310.4
2018-Jan-24 08:30N 01°09' E 103°43'510.8
2018-Jan-24 08:00N 01°11' E 103°48'510.5
2018-Jan-24 07:30N 01°13' E 103°53'510.3
2018-Jan-24 07:00N 01°15' E 103°58'4 8.1
2018-Jan-24 06:29N 01°17' E 104°02'0 0.6
2018-Jan-24 05:59N 01°17' E 104°02'0 0.0
2018-Jan-24 05:23N 01°17' E 104°02'0 0.0
2018-Jan-24 04:56N 01°17' E 104°02'0 0.0
2018-Jan-24 04:29N 01°17' E 104°02'0 0.0
2018-Jan-24 03:59N 01°17' E 104°02'0 0.0
2018-Jan-24 03:29N 01°17' E 104°02'0 0.0
2018-Jan-24 02:59N 01°17' E 104°02'0 0.0
2018-Jan-24 02:29N 01°17' E 104°02'0 0.0
2018-Jan-24 01:59N 01°17' E 104°02'0 0.0
2018-Jan-24 01:29N 01°17' E 104°02'0 0.0
2018-Jan-24 00:59N 01°17' E 104°02'0 0.0
2018-Jan-24 00:26N 01°17' E 104°02'0 0.0
2018-Jan-23 23:50N 01°17' E 104°02'0 0.0
2018-Jan-23 23:17N 01°17' E 104°02'0 0.0
2018-Jan-23 22:59N 01°17' E 104°02'0 0.0
2018-Jan-23 22:29N 01°17' E 104°02'0 0.0
2018-Jan-23 21:23N 01°17' E 104°02'0 0.0
2018-Jan-23 20:59N 01°17' E 104°02'0 0.0
2018-Jan-23 20:29N 01°17' E 104°02'0 0.0
2018-Jan-23 19:53N 01°17' E 104°02'0 0.1
2018-Jan-23 19:23N 01°17' E 104°02'0 0.1
2018-Jan-23 18:56N 01°17' E 104°02'1 1.7
2018-Jan-23 18:30N 01°17' E 104°01'3 5.0
2018-Jan-23 18:00N 01°16' E 103°58'0 0.7
2018-Jan-23 17:30N 01°16' E 103°58'2 4.2
2018-Jan-23 17:00N 01°16' E 104°00'3 5.9
2018-Jan-23 16:28N 01°17' E 104°03'  
2018-Jan-18 03:45N 22°24' E 119°40'3 9.8
2018-Jan-18 03:29N 22°27' E 119°41'5 9.6
2018-Jan-18 02:56N 22°32' E 119°43'4 9.8
2018-Jan-18 02:30N 22°35' E 119°45'510.7
2018-Jan-18 02:00N 22°40' E 119°48'510.7
2018-Jan-18 01:30N 22°45' E 119°50'511.0
2018-Jan-18 01:00N 22°50' E 119°52'1010.4
2018-Jan-18 00:00N 22°60' E 119°56'0 9.6
2018-Jan-17 23:57N 23°00' E 119°56'  

Dump ship's entire track history